sensor_id;sensor_type;location;lat;lon;timestamp;temperature;humidity
32640;DHT22;19049;52.524;11.468;2022-09-28T00:01:53;11.40;96.70
32640;DHT22;19049;52.524;11.468;2022-09-28T00:04:19;11.40;96.40
32640;DHT22;19049;52.524;11.468;2022-09-28T00:06:45;11.40;96.40
32640;DHT22;19049;52.524;11.468;2022-09-28T00:09:12;11.40;96.40
32640;DHT22;19049;52.524;11.468;2022-09-28T00:11:38;11.40;96.40
32640;DHT22;19049;52.524;11.468;2022-09-28T00:14:06;11.40;96.40
32640;DHT22;19049;52.524;11.468;2022-09-28T00:16:37;11.40;96.40
32640;DHT22;19049;52.524;11.468;2022-09-28T00:19:07;11.30;96.40
32640;DHT22;19049;52.524;11.468;2022-09-28T00:21:35;11.30;96.40
32640;DHT22;19049;52.524;11.468;2022-09-28T00:24:03;11.30;96.50
32640;DHT22;19049;52.524;11.468;2022-09-28T00:29:20;11.30;96.50
32640;DHT22;19049;52.524;11.468;2022-09-28T00:31:46;11.30;96.50
32640;DHT22;19049;52.524;11.468;2022-09-28T00:34:13;11.30;96.60
32640;DHT22;19049;52.524;11.468;2022-09-28T00:36:43;11.30;96.60
32640;DHT22;19049;52.524;11.468;2022-09-28T00:39:10;11.30;96.60
32640;DHT22;19049;52.524;11.468;2022-09-28T00:41:39;11.30;96.60
32640;DHT22;19049;52.524;11.468;2022-09-28T00:47:02;11.30;96.60
32640;DHT22;19049;52.524;11.468;2022-09-28T00:49:42;11.30;96.60
32640;DHT22;19049;52.524;11.468;2022-09-28T00:52:13;11.30;96.60
32640;DHT22;19049;52.524;11.468;2022-09-28T00:54:44;11.30;96.60
32640;DHT22;19049;52.524;11.468;2022-09-28T00:57:11;11.30;96.60
32640;DHT22;19049;52.524;11.468;2022-09-28T00:59:38;11.30;96.60
32640;DHT22;19049;52.524;11.468;2022-09-28T01:02:04;11.30;96.60
32640;DHT22;19049;52.524;11.468;2022-09-28T01:04:30;11.30;96.60
32640;DHT22;19049;52.524;11.468;2022-09-28T01:06:57;11.30;96.60
32640;DHT22;19049;52.524;11.468;2022-09-28T01:09:25;11.30;96.60
32640;DHT22;19049;52.524;11.468;2022-09-28T01:11:51;11.20;96.60
32640;DHT22;19049;52.524;11.468;2022-09-28T01:14:17;11.20;96.60
32640;DHT22;19049;52.524;11.468;2022-09-28T01:17:13;11.20;96.60
32640;DHT22;19049;52.524;11.468;2022-09-28T01:23:31;11.20;96.60
32640;DHT22;19049;52.524;11.468;2022-09-28T01:26:40;11.20;96.70
32640;DHT22;19049;52.524;11.468;2022-09-28T01:29:49;11.20;96.60
32640;DHT22;19049;52.524;11.468;2022-09-28T01:32:26;11.20;96.60
32640;DHT22;19049;52.524;11.468;2022-09-28T01:35:05;11.10;96.60
32640;DHT22;19049;52.524;11.468;2022-09-28T01:40:26;11.10;96.50
32640;DHT22;19049;52.524;11.468;2022-09-28T01:43:05;11.10;96.50
32640;DHT22;19049;52.524;11.468;2022-09-28T01:45:45;11.00;96.40
32640;DHT22;19049;52.524;11.468;2022-09-28T01:48:20;11.00;96.50
32640;DHT22;19049;52.524;11.468;2022-09-28T01:50:53;11.00;96.40
32640;DHT22;19049;52.524;11.468;2022-09-28T01:53:51;10.90;96.40
32640;DHT22;19049;52.524;11.468;2022-09-28T01:56:25;10.90;96.40
32640;DHT22;19049;52.524;11.468;2022-09-28T01:59:11;10.90;96.40
32640;DHT22;19049;52.524;11.468;2022-09-28T02:02:02;10.80;96.70
32640;DHT22;19049;52.524;11.468;2022-09-28T02:04:35;10.80;96.30
32640;DHT22;19049;52.524;11.468;2022-09-28T02:07:07;10.70;96.30
32640;DHT22;19049;52.524;11.468;2022-09-28T02:09:39;10.60;96.30
32640;DHT22;19049;52.524;11.468;2022-09-28T02:12:21;10.60;96.30
32640;DHT22;19049;52.524;11.468;2022-09-28T02:14:49;10.50;96.30
32640;DHT22;19049;52.524;11.468;2022-09-28T02:17:17;10.50;96.30
32640;DHT22;19049;52.524;11.468;2022-09-28T02:19:50;10.40;96.30
32640;DHT22;19049;52.524;11.468;2022-09-28T02:23:01;10.40;96.30
32640;DHT22;19049;52.524;11.468;2022-09-28T02:25:39;10.30;96.20
32640;DHT22;19049;52.524;11.468;2022-09-28T02:28:10;10.20;96.10
32640;DHT22;19049;52.524;11.468;2022-09-28T02:30:39;10.10;96.00
32640;DHT22;19049;52.524;11.468;2022-09-28T02:33:32;10.00;95.90
32640;DHT22;19049;52.524;11.468;2022-09-28T02:35:59;9.90;95.90
32640;DHT22;19049;52.524;11.468;2022-09-28T02:38:37;9.80;95.90
32640;DHT22;19049;52.524;11.468;2022-09-28T02:41:09;9.70;95.80
32640;DHT22;19049;52.524;11.468;2022-09-28T02:43:50;9.60;95.90
32640;DHT22;19049;52.524;11.468;2022-09-28T02:46:28;9.50;96.00
32640;DHT22;19049;52.524;11.468;2022-09-28T02:55:00;9.20;95.80
32640;DHT22;19049;52.524;11.468;2022-09-28T03:00:18;8.90;95.80
32640;DHT22;19049;52.524;11.468;2022-09-28T03:07:59;8.70;95.90
32640;DHT22;19049;52.524;11.468;2022-09-28T03:10:49;8.60;96.00
32640;DHT22;19049;52.524;11.468;2022-09-28T03:13:15;8.50;96.00
32640;DHT22;19049;52.524;11.468;2022-09-28T03:15:41;8.40;95.90
32640;DHT22;19049;52.524;11.468;2022-09-28T03:18:09;8.40;96.20
32640;DHT22;19049;52.524;11.468;2022-09-28T03:20:34;8.20;95.90
32640;DHT22;19049;52.524;11.468;2022-09-28T03:23:03;8.20;95.90
32640;DHT22;19049;52.524;11.468;2022-09-28T03:25:28;8.10;96.00
32640;DHT22;19049;52.524;11.468;2022-09-28T03:27:56;8.00;96.10
32640;DHT22;19049;52.524;11.468;2022-09-28T03:30:22;8.00;96.30
32640;DHT22;19049;52.524;11.468;2022-09-28T03:32:59;7.90;96.30
32640;DHT22;19049;52.524;11.468;2022-09-28T03:35:27;7.90;96.50
32640;DHT22;19049;52.524;11.468;2022-09-28T03:38:03;7.90;96.50
32640;DHT22;19049;52.524;11.468;2022-09-28T03:40:28;7.80;96.40
32640;DHT22;19049;52.524;11.468;2022-09-28T03:42:54;7.80;96.30
32640;DHT22;19049;52.524;11.468;2022-09-28T03:45:20;7.70;96.20
32640;DHT22;19049;52.524;11.468;2022-09-28T03:47:46;7.70;96.20
32640;DHT22;19049;52.524;11.468;2022-09-28T03:50:13;7.60;96.30
32640;DHT22;19049;52.524;11.468;2022-09-28T03:52:44;7.60;96.30
32640;DHT22;19049;52.524;11.468;2022-09-28T03:55:10;7.50;96.30
32640;DHT22;19049;52.524;11.468;2022-09-28T03:57:39;7.50;96.30
32640;DHT22;19049;52.524;11.468;2022-09-28T04:00:05;7.40;96.30
32640;DHT22;19049;52.524;11.468;2022-09-28T04:02:32;7.40;96.40
32640;DHT22;19049;52.524;11.468;2022-09-28T04:05:00;7.40;96.60
32640;DHT22;19049;52.524;11.468;2022-09-28T04:07:25;7.40;96.80
32640;DHT22;19049;52.524;11.468;2022-09-28T04:09:51;7.40;96.90
32640;DHT22;19049;52.524;11.468;2022-09-28T04:12:19;7.40;97.00
32640;DHT22;19049;52.524;11.468;2022-09-28T04:14:47;7.40;97.00
32640;DHT22;19049;52.524;11.468;2022-09-28T04:17:20;7.40;97.00
32640;DHT22;19049;52.524;11.468;2022-09-28T04:19:46;7.40;97.00
32640;DHT22;19049;52.524;11.468;2022-09-28T04:22:12;7.40;96.90
32640;DHT22;19049;52.524;11.468;2022-09-28T04:24:38;7.40;96.70
32640;DHT22;19049;52.524;11.468;2022-09-28T04:27:04;7.40;96.60
32640;DHT22;19049;52.524;11.468;2022-09-28T04:29:48;7.30;96.60
32640;DHT22;19049;52.524;11.468;2022-09-28T04:32:14;7.20;96.50
32640;DHT22;19049;52.524;11.468;2022-09-28T04:34:42;7.20;96.50
32640;DHT22;19049;52.524;11.468;2022-09-28T04:37:07;7.10;96.50
32640;DHT22;19049;52.524;11.468;2022-09-28T04:39:33;7.10;96.60
32640;DHT22;19049;52.524;11.468;2022-09-28T04:42:01;7.10;96.70
32640;DHT22;19049;52.524;11.468;2022-09-28T04:44:26;7.00;96.60
32640;DHT22;19049;52.524;11.468;2022-09-28T04:46:56;7.00;96.50
32640;DHT22;19049;52.524;11.468;2022-09-28T04:49:24;6.90;96.40
32640;DHT22;19049;52.524;11.468;2022-09-28T04:51:50;6.80;96.30
32640;DHT22;19049;52.524;11.468;2022-09-28T04:54:17;6.80;96.30
32640;DHT22;19049;52.524;11.468;2022-09-28T04:56:48;6.70;96.40
32640;DHT22;19049;52.524;11.468;2022-09-28T04:59:14;6.70;96.60
32640;DHT22;19049;52.524;11.468;2022-09-28T05:01:39;6.70;96.80
32640;DHT22;19049;52.524;11.468;2022-09-28T05:04:07;6.70;96.90
32640;DHT22;19049;52.524;11.468;2022-09-28T05:06:33;6.70;96.90
32640;DHT22;19049;52.524;11.468;2022-09-28T05:08:58;6.70;96.90
32640;DHT22;19049;52.524;11.468;2022-09-28T05:11:24;6.60;96.90
32640;DHT22;19049;52.524;11.468;2022-09-28T05:13:50;6.70;96.90
32640;DHT22;19049;52.524;11.468;2022-09-28T05:16:16;6.70;96.80
32640;DHT22;19049;52.524;11.468;2022-09-28T05:18:44;6.60;96.80
32640;DHT22;19049;52.524;11.468;2022-09-28T05:21:11;6.60;96.80
32640;DHT22;19049;52.524;11.468;2022-09-28T05:23:38;6.60;96.90
32640;DHT22;19049;52.524;11.468;2022-09-28T05:26:06;6.60;97.00
32640;DHT22;19049;52.524;11.468;2022-09-28T05:29:05;6.60;97.10
32640;DHT22;19049;52.524;11.468;2022-09-28T05:31:41;6.70;97.40
32640;DHT22;19049;52.524;11.468;2022-09-28T05:34:07;6.80;97.50
32640;DHT22;19049;52.524;11.468;2022-09-28T05:36:32;6.80;97.70
32640;DHT22;19049;52.524;11.468;2022-09-28T05:39:05;6.90;97.80
32640;DHT22;19049;52.524;11.468;2022-09-28T05:41:38;7.00;98.30
32640;DHT22;19049;52.524;11.468;2022-09-28T05:44:19;7.10;98.00
32640;DHT22;19049;52.524;11.468;2022-09-28T05:46:48;7.20;98.20
32640;DHT22;19049;52.524;11.468;2022-09-28T05:49:23;7.30;98.60
32640;DHT22;19049;52.524;11.468;2022-09-28T05:51:49;7.40;98.40
32640;DHT22;19049;52.524;11.468;2022-09-28T05:54:14;7.50;98.40
32640;DHT22;19049;52.524;11.468;2022-09-28T05:56:40;7.70;98.50
32640;DHT22;19049;52.524;11.468;2022-09-28T05:59:05;7.80;98.50
32640;DHT22;19049;52.524;11.468;2022-09-28T06:01:31;7.80;98.60
32640;DHT22;19049;52.524;11.468;2022-09-28T06:03:59;7.90;98.60
32640;DHT22;19049;52.524;11.468;2022-09-28T06:06:28;8.00;98.60
32640;DHT22;19049;52.524;11.468;2022-09-28T06:08:54;8.20;98.70
32640;DHT22;19049;52.524;11.468;2022-09-28T06:11:22;8.30;98.70
32640;DHT22;19049;52.524;11.468;2022-09-28T06:14:05;8.40;98.80
32640;DHT22;19049;52.524;11.468;2022-09-28T06:16:41;8.50;98.90
32640;DHT22;19049;52.524;11.468;2022-09-28T06:19:07;8.70;99.00
32640;DHT22;19049;52.524;11.468;2022-09-28T06:21:33;8.80;99.00
32640;DHT22;19049;52.524;11.468;2022-09-28T06:24:04;8.90;98.90
32640;DHT22;19049;52.524;11.468;2022-09-28T06:26:30;9.00;98.90
32640;DHT22;19049;52.524;11.468;2022-09-28T06:28:56;9.10;98.80
32640;DHT22;19049;52.524;11.468;2022-09-28T06:31:22;9.20;98.80
32640;DHT22;19049;52.524;11.468;2022-09-28T06:33:51;9.30;98.80
32640;DHT22;19049;52.524;11.468;2022-09-28T06:36:18;9.40;98.80
32640;DHT22;19049;52.524;11.468;2022-09-28T06:38:44;9.40;98.80
32640;DHT22;19049;52.524;11.468;2022-09-28T06:41:12;9.50;98.80
32640;DHT22;19049;52.524;11.468;2022-09-28T06:43:41;9.60;98.80
32640;DHT22;19049;52.524;11.468;2022-09-28T06:46:14;9.70;98.80
32640;DHT22;19049;52.524;11.468;2022-09-28T06:48:42;9.80;98.80
32640;DHT22;19049;52.524;11.468;2022-09-28T06:51:09;9.90;98.90
32640;DHT22;19049;52.524;11.468;2022-09-28T06:53:37;9.90;98.90
32640;DHT22;19049;52.524;11.468;2022-09-28T06:56:06;10.00;98.90
32640;DHT22;19049;52.524;11.468;2022-09-28T06:58:33;10.10;98.90
32640;DHT22;19049;52.524;11.468;2022-09-28T07:00:59;10.20;98.90
32640;DHT22;19049;52.524;11.468;2022-09-28T07:06:13;10.30;98.90
32640;DHT22;19049;52.524;11.468;2022-09-28T07:11:39;10.50;98.90
32640;DHT22;19049;52.524;11.468;2022-09-28T07:14:18;10.60;98.80
32640;DHT22;19049;52.524;11.468;2022-09-28T07:16:45;10.70;98.80
32640;DHT22;19049;52.524;11.468;2022-09-28T07:19:13;10.70;98.70
32640;DHT22;19049;52.524;11.468;2022-09-28T07:21:40;10.80;98.70
32640;DHT22;19049;52.524;11.468;2022-09-28T07:24:06;10.80;98.60
32640;DHT22;19049;52.524;11.468;2022-09-28T07:26:36;10.90;98.50
32640;DHT22;19049;52.524;11.468;2022-09-28T07:29:02;11.00;98.40
32640;DHT22;19049;52.524;11.468;2022-09-28T07:31:30;11.00;98.40
32640;DHT22;19049;52.524;11.468;2022-09-28T07:34:05;11.00;98.30
32640;DHT22;19049;52.524;11.468;2022-09-28T07:36:31;11.00;98.20
32640;DHT22;19049;52.524;11.468;2022-09-28T07:39:00;11.10;98.20
32640;DHT22;19049;52.524;11.468;2022-09-28T07:41:27;11.10;98.10
32640;DHT22;19049;52.524;11.468;2022-09-28T07:44:00;11.10;98.40
32640;DHT22;19049;52.524;11.468;2022-09-28T07:46:35;11.10;98.00
32640;DHT22;19049;52.524;11.468;2022-09-28T07:49:04;11.10;98.10
32640;DHT22;19049;52.524;11.468;2022-09-28T07:51:32;11.20;98.20
32640;DHT22;19049;52.524;11.468;2022-09-28T07:54:02;11.20;98.20
32640;DHT22;19049;52.524;11.468;2022-09-28T07:56:33;11.30;98.30
32640;DHT22;19049;52.524;11.468;2022-09-28T07:59:01;11.30;98.20
32640;DHT22;19049;52.524;11.468;2022-09-28T08:01:29;11.40;98.20
32640;DHT22;19049;52.524;11.468;2022-09-28T08:04:05;11.50;98.20
32640;DHT22;19049;52.524;11.468;2022-09-28T08:06:51;11.50;98.10
32640;DHT22;19049;52.524;11.468;2022-09-28T08:09:21;11.60;98.20
32640;DHT22;19049;52.524;11.468;2022-09-28T08:11:47;11.60;98.10
32640;DHT22;19049;52.524;11.468;2022-09-28T08:14:15;11.70;98.10
32640;DHT22;19049;52.524;11.468;2022-09-28T08:16:41;11.70;97.90
32640;DHT22;19049;52.524;11.468;2022-09-28T08:19:09;11.80;98.10
32640;DHT22;19049;52.524;11.468;2022-09-28T08:21:35;11.80;97.60
32640;DHT22;19049;52.524;11.468;2022-09-28T08:24:13;11.90;97.80
32640;DHT22;19049;52.524;11.468;2022-09-28T08:26:42;11.90;97.50
32640;DHT22;19049;52.524;11.468;2022-09-28T08:29:09;11.90;97.80
32640;DHT22;19049;52.524;11.468;2022-09-28T08:32:20;12.00;97.80
32640;DHT22;19049;52.524;11.468;2022-09-28T08:34:48;12.10;97.90
32640;DHT22;19049;52.524;11.468;2022-09-28T08:37:14;12.20;98.10
32640;DHT22;19049;52.524;11.468;2022-09-28T08:39:40;12.30;98.10
32640;DHT22;19049;52.524;11.468;2022-09-28T08:44:59;12.50;97.70
32640;DHT22;19049;52.524;11.468;2022-09-28T08:47:44;12.70;97.80
32640;DHT22;19049;52.524;11.468;2022-09-28T08:50:32;12.80;98.00
32640;DHT22;19049;52.524;11.468;2022-09-28T08:53:29;12.90;98.40
32640;DHT22;19049;52.524;11.468;2022-09-28T08:55:59;13.10;98.30
32640;DHT22;19049;52.524;11.468;2022-09-28T08:58:36;13.30;98.20
32640;DHT22;19049;52.524;11.468;2022-09-28T09:01:07;13.50;98.30
32640;DHT22;19049;52.524;11.468;2022-09-28T09:03:40;13.70;96.50
32640;DHT22;19049;52.524;11.468;2022-09-28T09:09:22;13.90;96.50
32640;DHT22;19049;52.524;11.468;2022-09-28T09:12:08;13.90;96.10
32640;DHT22;19049;52.524;11.468;2022-09-28T09:15:02;13.90;95.50
32640;DHT22;19049;52.524;11.468;2022-09-28T09:17:56;13.90;95.90
32640;DHT22;19049;52.524;11.468;2022-09-28T09:20:30;13.90;95.90
32640;DHT22;19049;52.524;11.468;2022-09-28T09:25:49;14.00;96.20
32640;DHT22;19049;52.524;11.468;2022-09-28T09:34:28;14.20;96.20
32640;DHT22;19049;52.524;11.468;2022-09-28T09:48:27;14.20;96.00
32640;DHT22;19049;52.524;11.468;2022-09-28T09:51:00;14.20;95.90
32640;DHT22;19049;52.524;11.468;2022-09-28T09:58:42;14.20;96.00
32640;DHT22;19049;52.524;11.468;2022-09-28T10:01:14;14.20;96.10
32640;DHT22;19049;52.524;11.468;2022-09-28T10:03:45;14.30;96.40
32640;DHT22;19049;52.524;11.468;2022-09-28T10:06:17;14.30;96.40
32640;DHT22;19049;52.524;11.468;2022-09-28T10:08:48;14.40;95.60
32640;DHT22;19049;52.524;11.468;2022-09-28T10:11:20;14.60;96.30
32640;DHT22;19049;52.524;11.468;2022-09-28T10:13:47;14.70;96.30
32640;DHT22;19049;52.524;11.468;2022-09-28T10:16:17;14.70;96.40
32640;DHT22;19049;52.524;11.468;2022-09-28T10:18:44;14.80;96.20
32640;DHT22;19049;52.524;11.468;2022-09-28T10:21:17;15.00;96.60
32640;DHT22;19049;52.524;11.468;2022-09-28T10:23:51;15.00;95.70
32640;DHT22;19049;52.524;11.468;2022-09-28T10:26:23;15.10;95.70
32640;DHT22;19049;52.524;11.468;2022-09-28T10:29:01;15.20;96.30
32640;DHT22;19049;52.524;11.468;2022-09-28T10:31:42;15.20;95.90
32640;DHT22;19049;52.524;11.468;2022-09-28T10:34:15;15.20;95.50
32640;DHT22;19049;52.524;11.468;2022-09-28T10:36:50;15.20;95.40
32640;DHT22;19049;52.524;11.468;2022-09-28T10:39:30;15.20;95.30
32640;DHT22;19049;52.524;11.468;2022-09-28T10:41:58;15.10;94.90
32640;DHT22;19049;52.524;11.468;2022-09-28T10:44:25;15.10;95.80
32640;DHT22;19049;52.524;11.468;2022-09-28T10:46:55;15.10;94.90
32640;DHT22;19049;52.524;11.468;2022-09-28T10:49:23;15.10;93.60
32640;DHT22;19049;52.524;11.468;2022-09-28T10:51:52;15.00;94.50
32640;DHT22;19049;52.524;11.468;2022-09-28T10:56:51;14.80;94.40
32640;DHT22;19049;52.524;11.468;2022-09-28T11:02:02;14.70;95.00
32640;DHT22;19049;52.524;11.468;2022-09-28T11:04:37;14.80;95.00
32640;DHT22;19049;52.524;11.468;2022-09-28T11:07:14;14.80;95.30
32640;DHT22;19049;52.524;11.468;2022-09-28T11:09:41;14.90;95.90
32640;DHT22;19049;52.524;11.468;2022-09-28T11:12:15;14.90;95.70
32640;DHT22;19049;52.524;11.468;2022-09-28T11:14:42;15.00;95.90
32640;DHT22;19049;52.524;11.468;2022-09-28T11:19:40;15.20;94.30
32640;DHT22;19049;52.524;11.468;2022-09-28T11:22:41;15.20;92.80
32640;DHT22;19049;52.524;11.468;2022-09-28T11:25:22;15.30;94.00
32640;DHT22;19049;52.524;11.468;2022-09-28T11:30:33;15.50;94.10
32640;DHT22;19049;52.524;11.468;2022-09-28T11:44:31;15.80;94.10
32640;DHT22;19049;52.524;11.468;2022-09-28T11:53:28;15.80;93.90
32640;DHT22;19049;52.524;11.468;2022-09-28T11:58:48;15.90;92.70
32640;DHT22;19049;52.524;11.468;2022-09-28T12:01:24;15.90;93.50
32640;DHT22;19049;52.524;11.468;2022-09-28T12:03:58;15.90;93.00
32640;DHT22;19049;52.524;11.468;2022-09-28T12:06:33;15.80;92.90
32640;DHT22;19049;52.524;11.468;2022-09-28T12:09:11;15.70;92.70
32640;DHT22;19049;52.524;11.468;2022-09-28T12:11:50;15.60;92.30
32640;DHT22;19049;52.524;11.468;2022-09-28T12:14:32;15.40;92.80
32640;DHT22;19049;52.524;11.468;2022-09-28T12:17:04;15.30;91.70
32640;DHT22;19049;52.524;11.468;2022-09-28T12:19:40;15.10;92.20
32640;DHT22;19049;52.524;11.468;2022-09-28T12:22:20;15.00;93.20
32640;DHT22;19049;52.524;11.468;2022-09-28T12:24:56;15.00;93.30
32640;DHT22;19049;52.524;11.468;2022-09-28T12:27:54;15.00;93.20
32640;DHT22;19049;52.524;11.468;2022-09-28T12:30:22;15.00;93.20
32640;DHT22;19049;52.524;11.468;2022-09-28T12:47:43;14.60;92.50
32640;DHT22;19049;52.524;11.468;2022-09-28T12:56:02;14.30;93.30
32640;DHT22;19049;52.524;11.468;2022-09-28T12:58:53;14.20;92.90
32640;DHT22;19049;52.524;11.468;2022-09-28T13:01:48;14.00;92.10
32640;DHT22;19049;52.524;11.468;2022-09-28T13:07:06;13.80;92.90
32640;DHT22;19049;52.524;11.468;2022-09-28T13:09:51;13.70;93.70
32640;DHT22;19049;52.524;11.468;2022-09-28T13:12:43;13.50;93.50
32640;DHT22;19049;52.524;11.468;2022-09-28T13:15:20;13.40;93.30
32640;DHT22;19049;52.524;11.468;2022-09-28T13:18:15;13.40;93.80
32640;DHT22;19049;52.524;11.468;2022-09-28T13:23:20;13.30;94.20
32640;DHT22;19049;52.524;11.468;2022-09-28T13:28:30;13.30;94.30
32640;DHT22;19049;52.524;11.468;2022-09-28T13:31:04;13.20;94.30
32640;DHT22;19049;52.524;11.468;2022-09-28T13:33:39;13.20;94.60
32640;DHT22;19049;52.524;11.468;2022-09-28T13:39:13;13.40;94.60
32640;DHT22;19049;52.524;11.468;2022-09-28T13:41:51;13.40;95.20
32640;DHT22;19049;52.524;11.468;2022-09-28T13:44:50;13.50;93.80
32640;DHT22;19049;52.524;11.468;2022-09-28T13:52:44;13.80;94.30
32640;DHT22;19049;52.524;11.468;2022-09-28T13:58:02;14.10;95.00
32640;DHT22;19049;52.524;11.468;2022-09-28T14:04:14;14.80;93.40
32640;DHT22;19049;52.524;11.468;2022-09-28T14:06:28;15.20;94.20
32640;DHT22;19049;52.524;11.468;2022-09-28T14:09:08;15.60;92.40
32640;DHT22;19049;52.524;11.468;2022-09-28T14:12:02;15.90;92.50
32640;DHT22;19049;52.524;11.468;2022-09-28T14:14:47;16.10;92.10
32640;DHT22;19049;52.524;11.468;2022-09-28T14:20:01;16.40;90.50
32640;DHT22;19049;52.524;11.468;2022-09-28T14:22:59;16.60;90.60
32640;DHT22;19049;52.524;11.468;2022-09-28T14:32:31;18.30;92.80
32640;DHT22;19049;52.524;11.468;2022-09-28T14:37:47;19.30;88.00
32640;DHT22;19049;52.524;11.468;2022-09-28T14:48:46;20.20;76.90
32640;DHT22;19049;52.524;11.468;2022-09-28T14:54:12;20.50;77.30
32640;DHT22;19049;52.524;11.468;2022-09-28T14:56:44;20.60;75.30
32640;DHT22;19049;52.524;11.468;2022-09-28T14:59:20;20.60;71.50
32640;DHT22;19049;52.524;11.468;2022-09-28T15:01:53;20.60;72.60
32640;DHT22;19049;52.524;11.468;2022-09-28T15:04:19;20.70;73.30
32640;DHT22;19049;52.524;11.468;2022-09-28T15:06:50;20.70;75.40
32640;DHT22;19049;52.524;11.468;2022-09-28T15:09:37;20.60;74.20
32640;DHT22;19049;52.524;11.468;2022-09-28T15:12:10;20.50;72.10
32640;DHT22;19049;52.524;11.468;2022-09-28T15:15:18;20.50;77.10
32640;DHT22;19049;52.524;11.468;2022-09-28T15:18:00;20.30;75.80
32640;DHT22;19049;52.524;11.468;2022-09-28T15:20:38;20.00;77.30
32640;DHT22;19049;52.524;11.468;2022-09-28T15:25:51;19.00;73.50
32640;DHT22;19049;52.524;11.468;2022-09-28T15:28:19;18.60;76.10
32640;DHT22;19049;52.524;11.468;2022-09-28T15:30:47;18.20;79.10
32640;DHT22;19049;52.524;11.468;2022-09-28T15:33:26;17.90;80.70
32640;DHT22;19049;52.524;11.468;2022-09-28T15:36:20;17.80;78.00
32640;DHT22;19049;52.524;11.468;2022-09-28T15:41:17;17.60;81.80
32640;DHT22;19049;52.524;11.468;2022-09-28T15:43:43;17.60;77.60
32640;DHT22;19049;52.524;11.468;2022-09-28T15:46:27;17.50;79.40
32640;DHT22;19049;52.524;11.468;2022-09-28T15:48:56;17.40;77.80
32640;DHT22;19049;52.524;11.468;2022-09-28T15:51:51;17.20;76.40
32640;DHT22;19049;52.524;11.468;2022-09-28T15:54:30;16.90;77.90
32640;DHT22;19049;52.524;11.468;2022-09-28T15:57:31;16.70;78.30
32640;DHT22;19049;52.524;11.468;2022-09-28T16:03:03;16.10;80.60
32640;DHT22;19049;52.524;11.468;2022-09-28T16:08:02;15.80;83.30
32640;DHT22;19049;52.524;11.468;2022-09-28T16:10:34;15.60;82.80
32640;DHT22;19049;52.524;11.468;2022-09-28T16:13:09;15.40;84.40
32640;DHT22;19049;52.524;11.468;2022-09-28T16:15:39;15.30;85.10
32640;DHT22;19049;52.524;11.468;2022-09-28T16:20:40;15.00;86.00
32640;DHT22;19049;52.524;11.468;2022-09-28T16:26:05;14.70;87.10
32640;DHT22;19049;52.524;11.468;2022-09-28T16:36:15;14.10;89.50
32640;DHT22;19049;52.524;11.468;2022-09-28T16:38:45;14.00;89.80
32640;DHT22;19049;52.524;11.468;2022-09-28T16:41:17;13.90;90.00
32640;DHT22;19049;52.524;11.468;2022-09-28T16:43:44;13.70;90.20
32640;DHT22;19049;52.524;11.468;2022-09-28T16:46:12;13.60;90.40
32640;DHT22;19049;52.524;11.468;2022-09-28T16:48:45;13.40;90.50
32640;DHT22;19049;52.524;11.468;2022-09-28T16:51:19;13.30;90.70
32640;DHT22;19049;52.524;11.468;2022-09-28T16:53:47;13.20;90.80
32640;DHT22;19049;52.524;11.468;2022-09-28T16:56:32;13.00;91.00
32640;DHT22;19049;52.524;11.468;2022-09-28T16:58:59;12.90;91.10
32640;DHT22;19049;52.524;11.468;2022-09-28T17:01:30;12.80;91.30
32640;DHT22;19049;52.524;11.468;2022-09-28T17:04:08;12.70;91.50
32640;DHT22;19049;52.524;11.468;2022-09-28T17:06:34;12.60;91.70
32640;DHT22;19049;52.524;11.468;2022-09-28T17:08:59;12.50;91.90
32640;DHT22;19049;52.524;11.468;2022-09-28T17:11:31;12.50;92.10
32640;DHT22;19049;52.524;11.468;2022-09-28T17:13:57;12.40;92.30
32640;DHT22;19049;52.524;11.468;2022-09-28T17:16:28;12.30;92.50
32640;DHT22;19049;52.524;11.468;2022-09-28T17:18:56;12.30;92.60
32640;DHT22;19049;52.524;11.468;2022-09-28T17:21:21;12.20;92.80
32640;DHT22;19049;52.524;11.468;2022-09-28T17:23:48;12.20;92.90
32640;DHT22;19049;52.524;11.468;2022-09-28T17:26:29;12.20;93.00
32640;DHT22;19049;52.524;11.468;2022-09-28T17:28:59;12.10;93.20
32640;DHT22;19049;52.524;11.468;2022-09-28T17:31:27;12.10;93.20
32640;DHT22;19049;52.524;11.468;2022-09-28T17:33:53;12.10;93.30
32640;DHT22;19049;52.524;11.468;2022-09-28T17:36:21;12.10;93.40
32640;DHT22;19049;52.524;11.468;2022-09-28T17:39:00;12.10;93.40
32640;DHT22;19049;52.524;11.468;2022-09-28T17:41:26;12.10;93.50
32640;DHT22;19049;52.524;11.468;2022-09-28T17:43:51;12.00;93.60
32640;DHT22;19049;52.524;11.468;2022-09-28T17:46:27;12.00;93.70
32640;DHT22;19049;52.524;11.468;2022-09-28T17:49:02;12.00;93.80
32640;DHT22;19049;52.524;11.468;2022-09-28T17:51:31;12.00;93.90
32640;DHT22;19049;52.524;11.468;2022-09-28T17:54:17;12.00;94.30
32640;DHT22;19049;52.524;11.468;2022-09-28T17:56:45;12.00;93.70
32640;DHT22;19049;52.524;11.468;2022-09-28T17:59:13;12.00;93.80
32640;DHT22;19049;52.524;11.468;2022-09-28T18:01:43;12.00;93.90
32640;DHT22;19049;52.524;11.468;2022-09-28T18:04:10;12.00;94.00
32640;DHT22;19049;52.524;11.468;2022-09-28T18:06:40;12.00;94.00
32640;DHT22;19049;52.524;11.468;2022-09-28T18:09:13;12.00;94.00
32640;DHT22;19049;52.524;11.468;2022-09-28T18:11:42;12.00;94.10
32640;DHT22;19049;52.524;11.468;2022-09-28T18:14:09;12.00;94.10
32640;DHT22;19049;52.524;11.468;2022-09-28T18:16:35;11.90;94.10
32640;DHT22;19049;52.524;11.468;2022-09-28T18:19:01;11.90;94.00
32640;DHT22;19049;52.524;11.468;2022-09-28T18:21:30;11.90;94.10
32640;DHT22;19049;52.524;11.468;2022-09-28T18:23:56;11.90;94.20
32640;DHT22;19049;52.524;11.468;2022-09-28T18:26:28;11.90;94.30
32640;DHT22;19049;52.524;11.468;2022-09-28T18:28:53;11.80;94.40
32640;DHT22;19049;52.524;11.468;2022-09-28T18:31:28;11.80;94.40
32640;DHT22;19049;52.524;11.468;2022-09-28T18:34:00;11.90;94.50
32640;DHT22;19049;52.524;11.468;2022-09-28T18:36:32;11.80;94.50
32640;DHT22;19049;52.524;11.468;2022-09-28T18:39:00;11.80;94.60
32640;DHT22;19049;52.524;11.468;2022-09-28T18:41:26;11.80;94.70
32640;DHT22;19049;52.524;11.468;2022-09-28T18:43:53;11.80;94.70
32640;DHT22;19049;52.524;11.468;2022-09-28T18:46:26;11.80;94.80
32640;DHT22;19049;52.524;11.468;2022-09-28T18:48:53;11.80;94.80
32640;DHT22;19049;52.524;11.468;2022-09-28T18:51:19;11.80;94.80
32640;DHT22;19049;52.524;11.468;2022-09-28T18:53:45;11.80;94.90
32640;DHT22;19049;52.524;11.468;2022-09-28T18:56:14;11.80;94.90
32640;DHT22;19049;52.524;11.468;2022-09-28T18:58:41;11.80;94.90